Country
Station

 

Weather  for  Kikai Island  -  Japan    Japan

  
17 °C (63 °F)
    
 
 

Current METAR for Kikai Island is :

RJKI 121400Z AUTO 36013KT 9999 BKN039 17/10 Q1023

 

This is a report for Kikai Island - Japan.
 
The report was made 58 minutes ago, at 14:00 UTC .
The wind was blowing at a speed of 6.7 meters per second (15.0 miles per hour) from north (360°).
 
The temperature was 17 °C (63 °F), with a dew-point at 10 °C (50 °F).
The atmospheric pressure was 1023 hPa (30.21 inHg).
The relative humidity was 63.4%.
 
There were broken clouds at a height of 1189 meters (3900 feet).
 
The overall visibility was greater than 10 kilometers (6.2 miles).
 

 
 
 
 

Country :   A   B   C   D   E   F   G   H   I   J   K   L   M   N   O   P   Q   R   S   T   U   V   W   Y   Z

 

Site Info  |  Disclaimer  |  Credits  |  Privacy
Contact us  |  Add to favorites
© 2013-2019 METARs - All rights reserved